createdAt,value
2022-10-18T00:00:20.738Z,14.75
2022-10-18T00:02:47.724Z,14.59
2022-10-18T00:05:14.620Z,14.71
2022-10-18T00:07:41.518Z,14.99
2022-10-18T00:10:08.903Z,14.93
2022-10-18T00:12:37.119Z,14.58
2022-10-18T00:15:06.586Z,14.34
2022-10-18T00:17:37.618Z,14.61
2022-10-18T00:20:06.095Z,15.09
2022-10-18T00:22:35.639Z,14.73
2022-10-18T00:25:02.552Z,15.10
2022-10-18T00:27:30.030Z,14.74
2022-10-18T00:29:57.028Z,14.52
2022-10-18T00:32:24.236Z,14.64
2022-10-18T00:34:51.288Z,15.11
2022-10-18T00:37:18.975Z,15.10
2022-10-18T00:39:46.173Z,14.41
2022-10-18T00:42:20.934Z,15.06
2022-10-18T00:44:50.768Z,15.06
2022-10-18T00:47:19.493Z,15.05
2022-10-18T00:49:52.406Z,15.04
2022-10-18T00:52:27.606Z,15.05
2022-10-18T00:54:55.012Z,15.03
2022-10-18T00:57:21.943Z,14.31
2022-10-18T00:59:48.918Z,14.44
2022-10-18T01:04:46.551Z,14.95
2022-10-18T01:07:16.868Z,14.94
2022-10-18T01:09:55.763Z,14.91
2022-10-18T01:12:33.221Z,14.89
2022-10-18T01:15:24.247Z,14.87
2022-10-18T01:18:42.025Z,14.84
2022-10-18T01:21:35.874Z,14.79
2022-10-18T01:24:23.990Z,14.75
2022-10-18T01:27:20.704Z,14.61
2022-10-18T01:30:03.290Z,14.19
2022-10-18T01:32:35.586Z,14.64
2022-10-18T01:35:05.293Z,14.17
2022-10-18T01:37:32.546Z,13.94
2022-10-18T01:39:59.781Z,14.19
2022-10-18T01:42:26.802Z,14.58
2022-10-18T01:44:53.693Z,14.35
2022-10-18T01:47:20.805Z,14.49
2022-10-18T01:49:47.682Z,14.31
2022-10-18T01:52:15.961Z,14.40
2022-10-18T01:54:45.032Z,14.47
2022-10-18T01:57:21.432Z,14.26
2022-10-18T02:00:09.564Z,14.20
2022-10-18T02:02:50.815Z,14.38
2022-10-18T02:05:40.441Z,14.36
2022-10-18T02:08:29.205Z,14.35
2022-10-18T02:10:57.927Z,14.35
2022-10-18T02:13:27.043Z,14.13
2022-10-18T02:15:57.044Z,13.51
2022-10-18T02:18:26.301Z,14.33
2022-10-18T02:20:53.222Z,14.32
2022-10-18T02:23:21.972Z,14.18
2022-10-18T02:25:48.952Z,14.09
2022-10-18T02:28:15.935Z,14.13
2022-10-18T02:30:54.561Z,14.11
2022-10-18T02:33:45.122Z,14.23
2022-10-18T02:36:47.005Z,14.22
2022-10-18T02:39:19.765Z,14.10
2022-10-18T02:41:46.973Z,13.78
2022-10-18T02:44:13.978Z,14.22
2022-10-18T02:46:41.150Z,14.04
2022-10-18T02:49:08.126Z,13.72
2022-10-18T02:51:35.328Z,14.00
2022-10-18T02:54:02.279Z,14.12
2022-10-18T02:56:29.203Z,13.95
2022-10-18T02:58:57.596Z,13.96
2022-10-18T03:01:24.547Z,14.13
2022-10-18T03:03:54.219Z,13.93
2022-10-18T03:06:21.267Z,14.23
2022-10-18T03:08:48.216Z,14.24
2022-10-18T03:11:15.288Z,13.90
2022-10-18T03:13:42.309Z,14.14
2022-10-18T03:16:09.401Z,14.05
2022-10-18T03:18:36.529Z,14.01
2022-10-18T03:21:07.335Z,13.95
2022-10-18T03:23:36.721Z,13.93
2022-10-18T03:26:04.021Z,14.02
2022-10-18T03:28:31.054Z,14.00
2022-10-18T03:31:02.312Z,13.82
2022-10-18T03:33:29.573Z,13.78
2022-10-18T03:35:56.792Z,13.96
2022-10-18T03:38:23.758Z,14.05
2022-10-18T03:40:51.027Z,14.02
2022-10-18T03:43:17.985Z,14.01
2022-10-18T03:45:45.328Z,14.01
2022-10-18T03:48:12.207Z,14.00
2022-10-18T03:50:39.131Z,13.99
2022-10-18T03:53:06.092Z,13.77
2022-10-18T03:55:32.994Z,13.53
2022-10-18T03:58:00.015Z,13.72
2022-10-18T04:00:27.086Z,13.46
2022-10-18T04:02:55.877Z,13.68
2022-10-18T04:05:24.410Z,13.53
2022-10-18T04:07:54.411Z,13.64
2022-10-18T04:10:21.876Z,13.41
2022-10-18T04:12:48.868Z,13.73
2022-10-18T04:15:15.740Z,13.66
2022-10-18T04:17:42.861Z,13.59
2022-10-18T04:20:09.934Z,13.44
2022-10-18T04:22:36.819Z,13.70
2022-10-18T04:25:04.003Z,13.42
2022-10-18T04:27:31.164Z,13.66
2022-10-18T04:29:58.424Z,13.82
2022-10-18T04:32:27.708Z,13.50
2022-10-18T04:34:54.667Z,13.48
2022-10-18T04:37:22.119Z,13.28
2022-10-18T04:39:52.601Z,13.50
2022-10-18T04:42:21.995Z,13.60
2022-10-18T04:44:48.946Z,12.87
2022-10-18T04:47:16.217Z,13.22
2022-10-18T04:49:43.260Z,12.81
2022-10-18T04:52:10.435Z,13.30
2022-10-18T04:54:37.374Z,13.44
2022-10-18T04:57:04.509Z,13.36
2022-10-18T04:59:31.394Z,13.48
2022-10-18T05:01:58.383Z,13.14
2022-10-18T05:04:25.631Z,13.44
2022-10-18T05:06:52.581Z,13.55
2022-10-18T05:09:19.595Z,13.23
2022-10-18T05:11:46.781Z,13.55
2022-10-18T05:14:13.845Z,13.37
2022-10-18T05:16:40.789Z,13.18
2022-10-18T05:19:07.889Z,13.17
2022-10-18T05:21:34.799Z,13.10
2022-10-18T05:24:01.689Z,13.48
2022-10-18T05:26:28.814Z,13.40
2022-10-18T05:28:56.846Z,13.50
2022-10-18T05:31:23.778Z,13.36
2022-10-18T05:33:50.865Z,13.48
2022-10-18T05:36:17.901Z,13.23
2022-10-18T05:38:48.422Z,13.07
2022-10-18T05:41:15.536Z,13.29
2022-10-18T05:43:42.568Z,12.53
2022-10-18T05:46:14.651Z,13.39
2022-10-18T05:48:44.434Z,13.10
2022-10-18T05:51:11.753Z,13.25
2022-10-18T05:53:38.668Z,12.81
2022-10-18T05:56:06.726Z,12.79
2022-10-18T05:58:34.063Z,13.24
2022-10-18T06:01:01.823Z,13.29
2022-10-18T06:03:30.956Z,13.24
2022-10-18T06:06:01.672Z,13.26
2022-10-18T06:10:56.274Z,13.06
2022-10-18T06:13:23.266Z,13.02
2022-10-18T06:15:53.361Z,12.63
2022-10-18T06:18:20.841Z,12.73
2022-10-18T06:20:47.862Z,12.95
2022-10-18T06:23:17.918Z,12.77
2022-10-18T06:25:47.838Z,12.60
2022-10-18T06:28:15.047Z,12.76
2022-10-18T06:30:42.065Z,12.77
2022-10-18T06:33:08.970Z,12.43
2022-10-18T06:35:35.875Z,12.23
2022-10-18T06:38:03.045Z,12.63
2022-10-18T06:40:31.012Z,12.34
2022-10-18T06:43:00.675Z,12.25
2022-10-18T06:45:33.735Z,12.40
2022-10-18T06:48:00.657Z,12.70
2022-10-18T06:50:28.124Z,12.46
2022-10-18T06:52:55.130Z,12.08
2022-10-18T06:55:22.108Z,12.39
2022-10-18T06:57:49.020Z,12.42
2022-10-18T07:00:15.951Z,12.45
2022-10-18T07:02:42.888Z,12.15
2022-10-18T07:05:10.467Z,12.46
2022-10-18T07:07:37.686Z,12.38
2022-10-18T07:10:05.119Z,12.49
2022-10-18T07:12:32.613Z,12.42
2022-10-18T07:15:00.009Z,12.43
2022-10-18T07:17:27.482Z,12.22
2022-10-18T07:19:54.410Z,12.07
2022-10-18T07:22:21.930Z,12.57
2022-10-18T07:24:48.839Z,12.46
2022-10-18T07:27:15.737Z,12.34
2022-10-18T07:29:43.005Z,12.40
2022-10-18T07:32:09.949Z,12.62
2022-10-18T07:34:36.918Z,12.43
2022-10-18T07:37:04.208Z,12.31
2022-10-18T07:39:31.101Z,12.46
2022-10-18T07:41:58.365Z,12.69
2022-10-18T07:44:25.705Z,12.47
2022-10-18T07:46:52.679Z,12.44
2022-10-18T07:49:19.556Z,12.49
2022-10-18T07:51:46.650Z,12.33
2022-10-18T07:54:13.649Z,12.17
2022-10-18T07:56:40.665Z,12.63
2022-10-18T07:59:09.149Z,12.51
2022-10-18T08:01:36.101Z,12.15
2022-10-18T08:04:07.171Z,12.56
2022-10-18T08:06:34.812Z,12.81
2022-10-18T08:09:01.694Z,12.85
2022-10-18T08:11:28.592Z,12.74
2022-10-18T08:13:55.639Z,12.85
2022-10-18T08:16:27.781Z,12.68
2022-10-18T08:18:56.986Z,12.93
2022-10-18T08:21:23.885Z,13.10
2022-10-18T08:23:50.845Z,12.92
2022-10-18T08:26:19.721Z,13.60
2022-10-18T08:28:53.917Z,13.88
2022-10-18T08:31:25.818Z,14.05
2022-10-18T08:33:54.412Z,13.96
2022-10-18T08:36:21.856Z,14.35
2022-10-18T08:38:49.408Z,14.56
2022-10-18T08:41:23.580Z,14.87
2022-10-18T08:44:30.957Z,15.00
2022-10-18T08:47:03.943Z,15.22
2022-10-18T08:49:44.236Z,15.23
2022-10-18T08:52:32.477Z,15.67
2022-10-18T08:55:08.351Z,15.87
2022-10-18T08:57:35.518Z,15.87
2022-10-18T09:00:08.232Z,16.20
2022-10-18T09:03:01.670Z,16.39
2022-10-18T09:05:49.574Z,16.40
2022-10-18T09:08:29.090Z,16.62
2022-10-18T09:11:08.969Z,16.33
2022-10-18T09:14:16.105Z,16.75
2022-10-18T09:17:16.239Z,16.86
2022-10-18T09:20:03.565Z,17.17
2022-10-18T09:23:05.777Z,17.27
2022-10-18T09:25:37.477Z,17.23
2022-10-18T09:28:39.618Z,17.40
2022-10-18T09:31:18.935Z,17.33
2022-10-18T09:33:58.495Z,17.46
2022-10-18T09:36:27.128Z,17.44
2022-10-18T09:39:00.428Z,17.52
2022-10-18T09:41:38.356Z,17.55
2022-10-18T09:44:18.843Z,17.52
2022-10-18T09:47:00.908Z,17.21
2022-10-18T09:49:33.206Z,17.33
2022-10-18T09:52:06.379Z,17.28
2022-10-18T09:54:39.785Z,17.28
2022-10-18T09:57:28.142Z,17.46
2022-10-18T09:59:55.026Z,17.34
2022-10-18T10:02:23.396Z,17.38
2022-10-18T10:04:52.167Z,17.50
2022-10-18T10:07:24.506Z,17.43
2022-10-18T10:10:06.975Z,17.49
2022-10-18T10:12:36.497Z,17.45
2022-10-18T10:15:31.220Z,17.34
2022-10-18T10:18:14.723Z,17.43
2022-10-18T10:20:46.032Z,17.49
2022-10-18T10:23:33.908Z,17.47
2022-10-18T10:26:25.286Z,17.49
2022-10-18T10:28:52.515Z,17.49
2022-10-18T10:31:19.366Z,17.49
2022-10-18T10:33:47.660Z,17.27
2022-10-18T10:36:22.384Z,17.08
2022-10-18T10:39:11.556Z,17.40
2022-10-18T10:41:38.937Z,17.25
2022-10-18T10:44:13.812Z,17.32
2022-10-18T10:46:40.753Z,17.29
2022-10-18T10:49:41.713Z,17.13
2022-10-18T10:52:26.430Z,17.30
2022-10-18T10:54:53.836Z,17.02
2022-10-18T10:57:23.441Z,17.28
2022-10-18T10:59:52.470Z,16.94
2022-10-18T11:02:32.420Z,17.37
2022-10-18T11:05:25.663Z,17.35
2022-10-18T11:07:54.905Z,17.27
2022-10-18T11:10:29.557Z,17.31
2022-10-18T11:13:41.838Z,17.24
2022-10-18T11:16:22.031Z,17.22
2022-10-18T11:18:50.075Z,16.90
2022-10-18T11:21:23.222Z,16.92
2022-10-18T11:23:50.716Z,17.25
2022-10-18T11:26:48.865Z,17.09
2022-10-18T11:29:47.501Z,17.15
2022-10-18T11:32:42.014Z,16.84
2022-10-18T11:35:24.849Z,17.09
2022-10-18T11:38:05.573Z,17.04
2022-10-18T11:40:57.583Z,17.01
2022-10-18T11:44:01.317Z,16.55
2022-10-18T11:46:47.553Z,16.89
2022-10-18T11:49:42.297Z,16.87
2022-10-18T11:52:20.807Z,16.34
2022-10-18T11:55:31.949Z,16.76
2022-10-18T11:58:06.153Z,16.77
2022-10-18T12:00:49.223Z,16.80
2022-10-18T12:03:47.042Z,16.81
2022-10-18T12:06:17.097Z,16.61
2022-10-18T12:09:23.177Z,16.79
2022-10-18T12:12:02.081Z,16.75
2022-10-18T12:14:50.906Z,16.63
2022-10-18T12:17:46.191Z,16.78
2022-10-18T12:20:40.333Z,16.41
2022-10-18T12:23:30.293Z,16.74
2022-10-18T12:26:03.894Z,16.36
2022-10-18T12:28:30.701Z,16.72
2022-10-18T12:31:12.536Z,16.30
2022-10-18T12:33:41.047Z,16.56
2022-10-18T12:36:14.088Z,16.78
2022-10-18T12:38:45.421Z,16.64
2022-10-18T12:41:24.838Z,16.03
2022-10-18T12:44:19.332Z,16.53
2022-10-18T12:46:52.102Z,16.71
2022-10-18T12:49:29.604Z,16.77
2022-10-18T12:52:01.722Z,16.45
2022-10-18T12:54:30.310Z,16.51
2022-10-18T12:56:58.996Z,16.83
2022-10-18T12:59:28.900Z,16.87
2022-10-18T13:01:55.701Z,16.90
2022-10-18T13:04:28.340Z,16.93
2022-10-18T13:06:59.046Z,16.97
2022-10-18T13:09:27.951Z,16.77
2022-10-18T13:12:10.144Z,17.04
2022-10-18T13:15:24.089Z,16.79
2022-10-18T13:17:54.410Z,16.85
2022-10-18T13:20:44.679Z,16.97
2022-10-18T13:23:19.957Z,17.07
2022-10-18T13:25:46.830Z,17.07
2022-10-18T13:28:50.605Z,16.80
2022-10-18T13:31:45.325Z,16.78
2022-10-18T13:34:23.071Z,16.95
2022-10-18T13:37:03.817Z,16.84
2022-10-18T13:39:30.912Z,16.85
2022-10-18T13:41:58.252Z,16.99
2022-10-18T13:44:37.508Z,16.79
2022-10-18T13:47:04.283Z,16.98
2022-10-18T13:49:40.433Z,16.88
2022-10-18T13:52:49.297Z,16.92
2022-10-18T13:55:41.234Z,16.90
2022-10-18T13:58:41.097Z,16.90
2022-10-18T14:01:32.123Z,16.81
2022-10-18T14:04:01.851Z,16.90
2022-10-18T14:06:29.376Z,16.16
2022-10-18T14:09:19.296Z,16.89
2022-10-18T14:12:14.355Z,16.87
2022-10-18T14:15:03.237Z,16.41
2022-10-18T14:17:43.126Z,16.63
2022-10-18T14:20:29.928Z,16.85
2022-10-18T14:23:07.033Z,16.71
2022-10-18T14:25:36.088Z,16.71
2022-10-18T14:28:11.558Z,16.59
2022-10-18T14:30:59.361Z,16.67
2022-10-18T14:33:39.298Z,16.76
2022-10-18T14:36:19.816Z,16.73
2022-10-18T14:39:00.486Z,16.59
2022-10-18T14:41:32.936Z,16.69
2022-10-18T14:44:19.515Z,16.51
2022-10-18T14:47:04.344Z,16.78
2022-10-18T14:49:31.296Z,16.79
2022-10-18T14:51:59.528Z,16.79
2022-10-18T14:54:33.958Z,16.48
2022-10-18T14:57:01.103Z,16.78
2022-10-18T14:59:45.738Z,16.71
2022-10-18T15:02:26.595Z,16.72
2022-10-18T15:05:23.616Z,16.70
2022-10-18T15:07:51.992Z,16.50
2022-10-18T15:10:22.555Z,16.71
2022-10-18T15:13:08.837Z,16.59
2022-10-18T15:15:36.653Z,16.56
2022-10-18T15:18:05.386Z,16.56
2022-10-18T15:20:34.367Z,16.65
2022-10-18T15:23:31.495Z,16.60
2022-10-18T15:26:09.733Z,16.43
2022-10-18T15:28:53.142Z,16.46
2022-10-18T15:31:28.455Z,16.29
2022-10-18T15:34:07.736Z,16.47
2022-10-18T15:36:35.941Z,16.34
2022-10-18T15:39:12.316Z,16.39
2022-10-18T15:41:50.828Z,16.22
2022-10-18T15:44:20.800Z,16.38
2022-10-18T15:46:48.206Z,15.87
2022-10-18T15:49:44.520Z,16.34
2022-10-18T15:52:38.917Z,16.27
2022-10-18T15:55:29.509Z,16.22
2022-10-18T15:58:17.104Z,16.09
2022-10-18T16:00:44.836Z,16.05
2022-10-18T16:03:11.726Z,16.16
2022-10-18T16:05:38.687Z,15.84
2022-10-18T16:08:05.744Z,15.79
2022-10-18T16:10:32.743Z,15.78
2022-10-18T16:12:59.710Z,16.07
2022-10-18T16:15:26.695Z,15.56
2022-10-18T16:17:53.662Z,16.01
2022-10-18T16:20:21.941Z,15.80
2022-10-18T16:22:48.990Z,15.77
2022-10-18T16:25:16.078Z,15.82
2022-10-18T16:27:42.960Z,15.91
2022-10-18T16:30:22.590Z,15.57
2022-10-18T16:32:49.584Z,15.68
2022-10-18T16:35:16.565Z,15.48
2022-10-18T16:37:43.769Z,15.44
2022-10-18T16:40:28.891Z,15.60
2022-10-18T16:42:56.038Z,15.60
2022-10-18T16:45:23.008Z,15.40
2022-10-18T16:47:49.881Z,15.31
2022-10-18T16:50:18.771Z,15.48
2022-10-18T16:52:45.668Z,15.36
2022-10-18T16:55:21.649Z,15.24
2022-10-18T16:57:48.997Z,15.21
2022-10-18T17:00:21.442Z,15.20
2022-10-18T17:02:49.519Z,15.01
2022-10-18T17:05:17.476Z,15.08
2022-10-18T17:07:45.037Z,14.75
2022-10-18T17:10:13.989Z,14.88
2022-10-18T17:12:41.041Z,14.81
2022-10-18T17:15:08.359Z,14.73
2022-10-18T17:17:35.988Z,14.35
2022-10-18T17:20:04.064Z,14.87
2022-10-18T17:22:30.989Z,14.87
2022-10-18T17:24:58.184Z,14.73
2022-10-18T17:27:25.161Z,14.71
2022-10-18T17:29:52.099Z,14.78
2022-10-18T17:32:19.192Z,14.53
2022-10-18T17:34:46.105Z,14.49
2022-10-18T17:37:13.717Z,14.70
2022-10-18T17:39:40.629Z,14.22
2022-10-18T17:42:07.580Z,14.15
2022-10-18T17:44:34.510Z,14.43
2022-10-18T17:47:01.446Z,14.18
2022-10-18T17:49:28.400Z,13.65
2022-10-18T17:51:55.292Z,13.99
2022-10-18T17:54:22.334Z,14.38
2022-10-18T17:56:53.665Z,14.10
2022-10-18T17:59:24.373Z,13.84
2022-10-18T18:01:51.788Z,14.09
2022-10-18T18:04:18.754Z,13.95
2022-10-18T18:06:45.977Z,14.05
2022-10-18T18:09:14.800Z,13.69
2022-10-18T18:11:48.431Z,13.97
2022-10-18T18:14:16.168Z,13.73
2022-10-18T18:16:45.649Z,13.81
2022-10-18T18:19:13.125Z,13.59
2022-10-18T18:21:40.517Z,13.89
2022-10-18T18:24:08.102Z,13.49
2022-10-18T18:26:35.990Z,13.51
2022-10-18T18:31:50.216Z,13.78
2022-10-18T18:34:17.726Z,13.76
2022-10-18T18:36:44.945Z,13.90
2022-10-18T18:39:22.159Z,12.78
2022-10-18T18:41:50.877Z,13.46
2022-10-18T18:44:18.280Z,13.81
2022-10-18T18:46:45.241Z,13.39
2022-10-18T18:49:12.614Z,13.37
2022-10-18T18:51:40.353Z,13.69
2022-10-18T18:54:08.552Z,13.64
2022-10-18T18:56:36.464Z,12.98
2022-10-18T18:59:04.048Z,13.46
2022-10-18T19:01:32.824Z,13.50
2022-10-18T19:04:00.025Z,13.44
2022-10-18T19:06:36.754Z,12.98
2022-10-18T19:09:07.203Z,13.33
2022-10-18T19:11:36.514Z,13.38
2022-10-18T19:14:03.705Z,13.10
2022-10-18T19:16:38.063Z,13.16
2022-10-18T19:19:14.144Z,13.13
2022-10-18T19:21:45.557Z,12.92
2022-10-18T19:24:12.649Z,13.06
2022-10-18T19:26:47.486Z,12.90
2022-10-18T19:29:19.080Z,13.22
2022-10-18T19:31:46.062Z,12.98
2022-10-18T19:34:14.119Z,12.91
2022-10-18T19:36:42.684Z,12.70
2022-10-18T19:39:16.346Z,13.09
2022-10-18T19:41:43.590Z,12.57
2022-10-18T19:44:10.566Z,12.54
2022-10-18T19:46:37.697Z,12.83
2022-10-18T19:49:04.675Z,12.94
2022-10-18T19:51:31.574Z,12.93
2022-10-18T19:53:58.552Z,12.91
2022-10-18T19:56:26.595Z,12.93
2022-10-18T19:58:53.692Z,12.83
2022-10-18T20:01:20.781Z,12.43
2022-10-18T20:03:47.933Z,12.67
2022-10-18T20:06:17.971Z,12.53
2022-10-18T20:08:48.252Z,12.82
2022-10-18T20:11:17.188Z,12.57
2022-10-18T20:13:44.079Z,12.70
2022-10-18T20:16:12.299Z,12.76
2022-10-18T20:18:39.347Z,12.43
2022-10-18T20:21:07.625Z,12.69
2022-10-18T20:23:38.693Z,12.64
2022-10-18T20:26:08.390Z,12.52
2022-10-18T20:28:35.396Z,12.31
2022-10-18T20:31:06.588Z,12.14
2022-10-18T20:33:34.015Z,12.27
2022-10-18T20:36:09.050Z,12.40
2022-10-18T20:38:37.696Z,12.26
2022-10-18T20:41:06.822Z,11.92
2022-10-18T20:43:34.023Z,12.27
2022-10-18T20:46:01.232Z,11.95
2022-10-18T20:48:28.581Z,11.87
2022-10-18T20:50:55.570Z,12.20
2022-10-18T20:53:22.914Z,12.17
2022-10-18T20:55:50.023Z,12.15
2022-10-18T20:58:17.171Z,11.91
2022-10-18T21:00:44.048Z,11.87
2022-10-18T21:05:37.906Z,12.07
2022-10-18T21:08:04.876Z,11.94
2022-10-18T21:10:31.790Z,11.45
2022-10-18T21:12:58.678Z,11.53
2022-10-18T21:15:25.668Z,11.81
2022-10-18T21:17:52.605Z,11.59
2022-10-18T21:20:19.528Z,11.78
2022-10-18T21:22:46.414Z,11.70
2022-10-18T21:25:13.398Z,11.49
2022-10-18T21:27:41.758Z,11.46
2022-10-18T21:30:09.261Z,11.50
2022-10-18T21:32:36.377Z,11.31
2022-10-18T21:35:03.376Z,11.58
2022-10-18T21:37:30.441Z,11.71
2022-10-18T21:39:57.582Z,11.59
2022-10-18T21:42:24.581Z,11.61
2022-10-18T21:44:52.066Z,11.51
2022-10-18T21:47:18.965Z,11.57
2022-10-18T21:49:45.899Z,11.45
2022-10-18T21:52:12.830Z,11.67
2022-10-18T21:54:39.711Z,11.15
2022-10-18T21:57:06.709Z,11.29
2022-10-18T21:59:33.598Z,10.78
2022-10-18T22:02:01.388Z,11.32
2022-10-18T22:04:28.275Z,11.64
2022-10-18T22:06:55.162Z,11.51
2022-10-18T22:09:22.546Z,11.57
2022-10-18T22:11:52.412Z,11.26
2022-10-18T22:14:19.391Z,11.18
2022-10-18T22:16:46.449Z,11.34
2022-10-18T22:19:13.506Z,11.41
2022-10-18T22:21:40.509Z,11.28
2022-10-18T22:24:08.742Z,11.49
2022-10-18T22:26:37.460Z,11.30
2022-10-18T22:29:07.097Z,11.50
2022-10-18T22:31:35.826Z,11.05
2022-10-18T22:34:07.859Z,11.50
2022-10-18T22:36:35.072Z,11.48
2022-10-18T22:39:02.453Z,11.66
2022-10-18T22:41:29.342Z,11.46
2022-10-18T22:43:58.471Z,11.15
2022-10-18T22:46:28.189Z,11.32
2022-10-18T22:48:55.229Z,11.36
2022-10-18T22:51:22.344Z,11.15
2022-10-18T22:53:49.293Z,11.29
2022-10-18T22:56:18.255Z,11.30
2022-10-18T22:58:48.309Z,11.31
2022-10-18T23:01:20.014Z,11.08
2022-10-18T23:03:47.017Z,11.15
2022-10-18T23:06:24.051Z,11.39
2022-10-18T23:08:51.884Z,11.06
2022-10-18T23:11:19.116Z,11.36
2022-10-18T23:13:46.176Z,11.15
2022-10-18T23:16:13.439Z,11.04
2022-10-18T23:18:40.504Z,11.00
2022-10-18T23:21:09.828Z,11.02
2022-10-18T23:23:38.399Z,11.21
2022-10-18T23:26:08.413Z,11.03
2022-10-18T23:28:36.454Z,11.24
2022-10-18T23:31:11.601Z,11.19
2022-10-18T23:33:39.254Z,11.23
2022-10-18T23:36:07.900Z,11.07
2022-10-18T23:38:35.444Z,11.02
2022-10-18T23:41:02.463Z,11.04
2022-10-18T23:43:29.319Z,11.19
2022-10-18T23:45:56.384Z,11.19
2022-10-18T23:48:23.428Z,10.97
2022-10-18T23:50:50.697Z,11.11
2022-10-18T23:53:19.698Z,11.09
2022-10-18T23:56:01.930Z,10.93
2022-10-18T23:58:30.018Z,11.14
